Time;durP1;ratioP1;P1;durP2;ratioP2;P2;SDS_P1;SDS_P2;PMS_P1;PMS_P2;Temp;Humidity;BMP_temperature;BMP_pressure;BME280_temperature;BME280_humidity;BME280_pressure;Samples;Min_cycle;Max_cycle;Signal;HPM_P1;HPM_P2
2022/08/02 00:00:52;;;;;;;7.67;6.97;;;;;;;;;;5001609;28;20420;-94
2022/08/02 00:03:18;;;;;;;7.87;6.93;;;;;;;;;;5002566;28;20930;-96
2022/08/02 00:05:44;;;;;;;5.83;5.50;;;;;;;;;;5002441;28;20432;-94
2022/08/02 00:08:10;;;;;;;6.30;5.63;;;;;;;;;;4981073;28;21094;-95
2022/08/02 00:10:36;;;;;;;5.37;5.07;;;;;;;;;;4998733;28;20432;-95
2022/08/02 00:13:03;;;;;;;6.80;5.70;;;;;;;;;;4986396;28;21000;-95
2022/08/02 00:15:29;;;;;;;6.00;5.53;;;;;;;;;;4999502;28;20494;-95
2022/08/02 00:17:55;;;;;;;5.97;5.50;;;;;;;;;;4999125;28;20836;-94
2022/08/02 00:20:21;;;;;;;5.10;5.00;;;;;;;;;;4982169;28;20581;-92
2022/08/02 00:22:47;;;;;;;5.90;5.70;;;;;;;;;;4989156;28;20464;-94
2022/08/02 00:25:13;;;;;;;7.90;7.20;;;;;;;;;;4980085;28;20467;-93
2022/08/02 00:27:39;;;;;;;5.70;5.50;;;;;;;;;;4984012;28;20484;-93
2022/08/02 00:30:05;;;;;;;7.23;5.17;;;;;;;;;;4998282;28;20462;-95
2022/08/02 00:32:31;;;;;;;4.90;4.60;;;;;;;;;;4995077;28;20452;-94
2022/08/02 00:34:57;;;;;;;5.33;5.13;;;;;;;;;;4986735;28;21244;-94
2022/08/02 00:37:23;;;;;;;5.47;5.10;;;;;;;;;;4997722;28;20491;-95
2022/08/02 00:39:49;;;;;;;5.00;4.60;;;;;;;;;;4998676;28;20467;-94
2022/08/02 00:42:15;;;;;;;5.83;5.53;;;;;;;;;;4977722;28;20937;-94
2022/08/02 00:44:42;;;;;;;5.30;5.00;;;;;;;;;;4993194;28;20426;-94
2022/08/02 00:47:08;;;;;;;5.93;5.23;;;;;;;;;;4987163;28;20461;-94
2022/08/02 00:49:34;;;;;;;7.40;5.60;;;;;;;;;;4997927;28;20849;-94
2022/08/02 00:52:00;;;;;;;5.40;5.20;;;;;;;;;;4994732;28;20432;-94
2022/08/02 00:54:26;;;;;;;6.60;6.07;;;;;;;;;;4996326;28;20467;-94
2022/08/02 00:56:52;;;;;;;5.77;5.47;;;;;;;;;;4989584;28;20453;-94
2022/08/02 00:59:18;;;;;;;6.40;5.90;;;;;;;;;;4992500;28;20420;-94
2022/08/02 01:01:44;;;;;;;5.93;5.63;;;;;;;;;;4977732;28;20465;-95
2022/08/02 01:04:11;;;;;;;6.53;6.13;;;;;;;;;;4980017;28;20479;-95
2022/08/02 01:06:38;;;;;;;6.03;5.63;;;;;;;;;;4996828;28;20460;-94
2022/08/02 01:09:04;;;;;;;5.87;5.60;;;;;;;;;;4999567;28;20790;-94
2022/08/02 01:11:32;;;;;;;6.40;6.00;;;;;;;;;;4996293;28;20428;-94
2022/08/02 01:14:01;;;;;;;6.03;5.63;;;;;;;;;;4999230;28;20484;-94
2022/08/02 01:16:30;;;;;;;5.93;5.43;;;;;;;;;;4993918;28;20425;-95
2022/08/02 01:18:59;;;;;;;10.30;6.67;;;;;;;;;;4986432;28;20409;-95
2022/08/02 01:21:57;;;;;;;9.10;8.40;;;;;;;;;;4981697;28;20451;-93
2022/08/02 01:27:19;;;;;;;6.87;6.37;;;;;;;;;;5000137;28;20492;-94
2022/08/02 01:29:49;;;;;;;6.47;5.83;;;;;;;;;;4987891;28;20433;-94
2022/08/02 01:32:17;;;;;;;7.07;6.50;;;;;;;;;;4994728;28;20452;-93
2022/08/02 01:34:46;;;;;;;6.87;6.43;;;;;;;;;;5005271;28;20524;-94
2022/08/02 01:37:18;;;;;;;6.40;5.93;;;;;;;;;;4989887;28;20939;-94
2022/08/02 01:39:46;;;;;;;6.83;6.23;;;;;;;;;;4985152;28;20977;-94
2022/08/02 01:42:13;;;;;;;6.13;5.73;;;;;;;;;;4985167;28;20447;-93
2022/08/02 01:44:40;;;;;;;6.43;6.00;;;;;;;;;;4985784;28;20994;-94
2022/08/02 01:47:08;;;;;;;8.03;6.80;;;;;;;;;;4989778;28;20898;-93
2022/08/02 01:49:36;;;;;;;7.73;6.93;;;;;;;;;;4997649;28;20487;-93
2022/08/02 01:52:21;;;;;;;6.93;6.50;;;;;;;;;;4993153;28;20448;-93
2022/08/02 01:54:53;;;;;;;7.10;6.23;;;;;;;;;;4998694;28;20479;-92
2022/08/02 01:57:21;;;;;;;5.93;5.47;;;;;;;;;;4961933;28;20540;-92
2022/08/02 01:59:48;;;;;;;6.47;5.97;;;;;;;;;;4981847;28;20436;-94
2022/08/02 02:02:15;;;;;;;6.60;5.90;;;;;;;;;;4998210;28;20441;-93
2022/08/02 02:04:42;;;;;;;6.03;5.53;;;;;;;;;;5013725;28;20439;-93
2022/08/02 02:07:08;;;;;;;7.17;6.37;;;;;;;;;;5004812;28;20566;-93
2022/08/02 02:09:36;;;;;;;6.63;6.33;;;;;;;;;;5002908;28;20501;-93
2022/08/02 02:12:03;;;;;;;6.60;6.10;;;;;;;;;;5012548;28;20440;-93
2022/08/02 02:14:29;;;;;;;6.37;5.87;;;;;;;;;;5001813;28;20492;-93
2022/08/02 02:16:57;;;;;;;6.70;6.03;;;;;;;;;;5001302;28;20439;-93
2022/08/02 02:19:23;;;;;;;7.13;6.57;;;;;;;;;;5022312;28;20465;-92
2022/08/02 02:21:49;;;;;;;6.80;6.27;;;;;;;;;;4989400;28;20430;-92
2022/08/02 02:24:15;;;;;;;8.10;6.30;;;;;;;;;;5004838;28;20423;-93
2022/08/02 02:26:42;;;;;;;7.33;6.63;;;;;;;;;;5019127;28;20479;-93
2022/08/02 02:29:08;;;;;;;8.10;6.53;;;;;;;;;;4995573;28;20408;-92
2022/08/02 02:31:37;;;;;;;6.13;5.83;;;;;;;;;;5028668;28;20937;-92
2022/08/02 02:34:17;;;;;;;7.00;5.77;;;;;;;;;;4995475;28;20415;-92
2022/08/02 02:36:48;;;;;;;7.13;6.43;;;;;;;;;;5011068;28;20432;-92
2022/08/02 02:39:15;;;;;;;6.60;6.20;;;;;;;;;;5020100;28;20416;-91
2022/08/02 02:41:42;;;;;;;8.50;7.70;;;;;;;;;;5014327;28;20436;-91
2022/08/02 02:44:10;;;;;;;7.10;6.50;;;;;;;;;;5020391;28;20447;-92
2022/08/02 02:46:37;;;;;;;7.30;6.60;;;;;;;;;;5016946;28;20518;-92
2022/08/02 02:49:03;;;;;;;9.23;8.47;;;;;;;;;;5018464;28;20432;-92
2022/08/02 02:51:29;;;;;;;7.37;6.80;;;;;;;;;;5017569;28;20503;-92
2022/08/02 02:53:56;;;;;;;8.80;6.60;;;;;;;;;;5014584;28;20452;-92
2022/08/02 02:56:23;;;;;;;7.27;6.70;;;;;;;;;;5012302;28;20455;-93
2022/08/02 02:58:49;;;;;;;7.90;7.20;;;;;;;;;;5013277;28;21521;-92
2022/08/02 03:01:28;;;;;;;8.23;6.93;;;;;;;;;;5015421;28;20439;-92
2022/08/02 03:03:59;;;;;;;7.40;6.90;;;;;;;;;;5013187;28;20443;-92
2022/08/02 03:06:25;;;;;;;8.43;7.20;;;;;;;;;;5010314;28;20498;-93
2022/08/02 03:08:51;;;;;;;6.63;6.10;;;;;;;;;;5012724;28;20447;-92
2022/08/02 03:11:17;;;;;;;7.53;7.23;;;;;;;;;;5009346;28;20526;-92
2022/08/02 03:13:44;;;;;;;6.20;5.90;;;;;;;;;;5019833;28;20439;-93
2022/08/02 03:16:10;;;;;;;7.33;6.67;;;;;;;;;;5005429;28;20427;-92
2022/08/02 03:18:38;;;;;;;9.87;7.37;;;;;;;;;;5021469;28;21017;-91
2022/08/02 03:21:15;;;;;;;8.13;7.50;;;;;;;;;;5045067;28;20554;-91
2022/08/02 03:23:42;;;;;;;7.33;6.83;;;;;;;;;;5021824;28;20439;-92
2022/08/02 03:26:08;;;;;;;8.50;7.73;;;;;;;;;;5036062;28;20967;-93
2022/08/02 03:28:35;;;;;;;8.63;7.97;;;;;;;;;;5042240;28;20443;-92
2022/08/02 03:31:01;;;;;;;8.17;7.10;;;;;;;;;;5045454;28;20422;-92
2022/08/02 03:33:27;;;;;;;6.93;6.40;;;;;;;;;;5040124;28;20442;-92
2022/08/02 03:35:56;;;;;;;7.10;6.50;;;;;;;;;;5042891;28;20426;-92
2022/08/02 03:38:22;;;;;;;7.20;6.90;;;;;;;;;;5042414;28;20521;-89
2022/08/02 03:40:49;;;;;;;7.53;6.90;;;;;;;;;;5038999;28;20517;-93
2022/08/02 03:43:15;;;;;;;7.40;6.80;;;;;;;;;;5028126;28;20476;-92
2022/08/02 03:45:42;;;;;;;7.70;7.10;;;;;;;;;;5042143;28;20519;-90
2022/08/02 03:48:09;;;;;;;6.30;6.00;;;;;;;;;;5041638;28;20462;-93
2022/08/02 03:50:35;;;;;;;7.03;6.57;;;;;;;;;;5024976;28;20434;-92
2022/08/02 03:53:02;;;;;;;8.80;8.00;;;;;;;;;;5038990;28;20445;-92
2022/08/02 03:55:28;;;;;;;7.17;6.33;;;;;;;;;;5049749;28;20446;-92
2022/08/02 03:57:54;;;;;;;7.63;7.03;;;;;;;;;;5043481;28;20426;-94
2022/08/02 04:00:21;;;;;;;6.40;5.90;;;;;;;;;;5045296;28;20426;-94
2022/08/02 04:02:50;;;;;;;8.33;7.73;;;;;;;;;;5041786;28;20480;-93
2022/08/02 04:05:17;;;;;;;7.20;6.70;;;;;;;;;;5047744;28;20509;-94
2022/08/02 04:07:43;;;;;;;6.80;6.37;;;;;;;;;;5046471;28;20465;-94
2022/08/02 04:10:09;;;;;;;6.03;5.50;;;;;;;;;;5045622;28;20464;-94
2022/08/02 04:12:35;;;;;;;7.33;6.90;;;;;;;;;;5041980;28;20438;-90
2022/08/02 04:15:03;;;;;;;6.10;5.63;;;;;;;;;;5024455;28;20457;-93
2022/08/02 04:17:31;;;;;;;6.77;6.40;;;;;;;;;;5020941;28;20415;-89
2022/08/02 04:20:01;;;;;;;7.20;6.70;;;;;;;;;;5018360;28;20510;-91
2022/08/02 04:22:30;;;;;;;11.80;6.17;;;;;;;;;;5040232;28;20418;-92
2022/08/02 04:24:58;;;;;;;6.27;5.77;;;;;;;;;;5042566;28;20605;-93
2022/08/02 04:27:25;;;;;;;6.00;5.60;;;;;;;;;;5036703;28;20473;-93
2022/08/02 04:29:54;;;;;;;6.13;5.90;;;;;;;;;;5049575;28;20504;-94
2022/08/02 04:32:20;;;;;;;6.83;6.43;;;;;;;;;;5043293;28;20480;-90
2022/08/02 04:34:47;;;;;;;8.00;6.93;;;;;;;;;;5065341;28;20411;-94
2022/08/02 04:37:13;;;;;;;7.67;6.63;;;;;;;;;;5044543;28;20433;-93
2022/08/02 04:39:42;;;;;;;6.07;5.63;;;;;;;;;;5015247;28;20409;-91
2022/08/02 04:42:08;;;;;;;6.80;6.30;;;;;;;;;;5021497;28;20448;-92
2022/08/02 04:44:35;;;;;;;6.50;6.03;;;;;;;;;;5021668;28;20427;-90
2022/08/02 04:47:01;;;;;;;6.30;5.93;;;;;;;;;;5016134;28;20464;-93
2022/08/02 04:49:31;;;;;;;7.57;6.93;;;;;;;;;;5050923;28;20498;-92
2022/08/02 04:51:57;;;;;;;7.57;6.93;;;;;;;;;;5038837;28;20429;-91
2022/08/02 04:54:24;;;;;;;7.10;6.70;;;;;;;;;;5007239;28;20407;-93
2022/08/02 04:56:50;;;;;;;6.67;6.23;;;;;;;;;;5033026;28;20941;-92
2022/08/02 04:59:16;;;;;;;7.50;6.80;;;;;;;;;;5044653;28;20431;-92
2022/08/02 05:01:43;;;;;;;7.90;7.30;;;;;;;;;;5040953;28;20442;-92
2022/08/02 05:04:09;;;;;;;8.60;8.10;;;;;;;;;;5045027;28;20442;-92
2022/08/02 05:06:35;;;;;;;7.73;7.07;;;;;;;;;;5051577;28;20478;-89
2022/08/02 05:09:01;;;;;;;7.77;7.10;;;;;;;;;;5033345;28;20458;-92
2022/08/02 05:11:27;;;;;;;6.40;6.03;;;;;;;;;;5017245;28;20435;-91
2022/08/02 05:13:53;;;;;;;7.20;6.70;;;;;;;;;;5015651;28;20428;-91
2022/08/02 05:16:19;;;;;;;6.83;6.30;;;;;;;;;;5032717;28;20406;-93
2022/08/02 05:18:45;;;;;;;6.27;5.87;;;;;;;;;;5027980;28;20454;-91
2022/08/02 05:21:11;;;;;;;9.30;5.83;;;;;;;;;;5047409;28;20466;-94
2022/08/02 05:23:37;;;;;;;6.47;5.97;;;;;;;;;;5044827;28;20668;-91
2022/08/02 05:28:42;;;;;;;6.43;5.93;;;;;;;;;;4620942;28;10001908;-92
2022/08/02 05:31:11;;;;;;;6.67;6.07;;;;;;;;;;4966318;29;20471;-91
2022/08/02 05:33:37;;;;;;;6.67;6.33;;;;;;;;;;4972524;28;20514;-88
2022/08/02 05:36:03;;;;;;;5.83;5.57;;;;;;;;;;4952383;29;20922;-92
2022/08/02 05:38:31;;;;;;;5.30;4.73;;;;;;;;;;4961133;29;20434;-85
2022/08/02 05:40:57;;;;;;;5.63;5.37;;;;;;;;;;4971021;29;20791;-93
2022/08/02 05:43:25;;;;;;;5.97;5.30;;;;;;;;;;4954043;29;20446;-93
2022/08/02 05:45:52;;;;;;;5.77;5.40;;;;;;;;;;4964614;28;20434;-92
2022/08/02 05:48:22;;;;;;;5.10;4.90;;;;;;;;;;4947936;29;20803;-93
2022/08/02 05:50:49;;;;;;;5.70;5.40;;;;;;;;;;4965441;29;20465;-93
2022/08/02 05:53:23;;;;;;;5.83;5.50;;;;;;;;;;4948304;28;20677;-90
2022/08/02 05:56:09;;;;;;;5.50;5.20;;;;;;;;;;4967806;29;20414;-91
2022/08/02 05:58:55;;;;;;;5.23;4.93;;;;;;;;;;4946137;29;20457;-91
2022/08/02 06:01:27;;;;;;;5.80;5.20;;;;;;;;;;4946709;29;20503;-92
2022/08/02 06:03:56;;;;;;;6.47;5.90;;;;;;;;;;4949954;29;20462;-89
2022/08/02 06:06:35;;;;;;;6.20;5.70;;;;;;;;;;4952210;29;20481;-93
2022/08/02 06:09:03;;;;;;;5.30;4.80;;;;;;;;;;4943815;29;20444;-93
2022/08/02 06:11:34;;;;;;;5.20;4.90;;;;;;;;;;4949984;29;20434;-89
2022/08/02 06:14:11;;;;;;;6.67;6.17;;;;;;;;;;4955898;29;20462;-93
2022/08/02 06:16:41;;;;;;;6.00;5.60;;;;;;;;;;4948411;29;21068;-92
2022/08/02 06:19:07;;;;;;;6.63;6.20;;;;;;;;;;4946588;29;20921;-93
2022/08/02 06:21:34;;;;;;;5.77;5.43;;;;;;;;;;4944877;29;20438;-91
2022/08/02 06:24:00;;;;;;;5.67;5.40;;;;;;;;;;4958810;29;20908;-91
2022/08/02 06:26:27;;;;;;;18.23;16.53;;;;;;;;;;4938246;29;20504;-89
2022/08/02 06:28:54;;;;;;;5.80;5.50;;;;;;;;;;4963711;29;20429;-90
2022/08/02 06:31:20;;;;;;;5.63;5.23;;;;;;;;;;4956749;29;20452;-92
2022/08/02 06:33:46;;;;;;;4.87;4.67;;;;;;;;;;4950847;29;20445;-90
2022/08/02 06:36:21;;;;;;;5.90;5.50;;;;;;;;;;4940359;29;20434;-92
2022/08/02 06:38:53;;;;;;;6.47;5.10;;;;;;;;;;4939518;29;20486;-92
2022/08/02 06:41:20;;;;;;;4.90;4.70;;;;;;;;;;4946549;28;20445;-91
2022/08/02 06:43:49;;;;;;;6.10;4.97;;;;;;;;;;4932527;29;20566;-91
2022/08/02 06:46:15;;;;;;;6.40;4.80;;;;;;;;;;4946920;29;20443;-91
2022/08/02 06:48:41;;;;;;;5.83;5.30;;;;;;;;;;4937745;29;20799;-89
2022/08/02 06:51:07;;;;;;;9.93;4.77;;;;;;;;;;4945118;29;20454;-93
2022/08/02 06:53:33;;;;;;;5.07;4.87;;;;;;;;;;4947397;29;20712;-92
2022/08/02 06:55:59;;;;;;;6.13;5.53;;;;;;;;;;4955789;29;20452;-92
2022/08/02 06:58:25;;;;;;;4.40;4.40;;;;;;;;;;4950378;29;20678;-91
2022/08/02 07:00:51;;;;;;;6.17;5.50;;;;;;;;;;4950843;29;20449;-86
2022/08/02 07:03:18;;;;;;;6.17;5.67;;;;;;;;;;4948553;29;20450;-90
2022/08/02 07:05:47;;;;;;;7.57;7.03;;;;;;;;;;4948446;29;20488;-85
2022/08/02 07:08:16;;;;;;;5.37;5.17;;;;;;;;;;4962179;29;20481;-91
2022/08/02 07:10:50;;;;;;;6.30;4.90;;;;;;;;;;4951841;29;20515;-92
2022/08/02 07:13:23;;;;;;;7.27;6.57;;;;;;;;;;4937305;29;20436;-91
2022/08/02 07:15:50;;;;;;;7.60;5.70;;;;;;;;;;4950553;29;20430;-88
2022/08/02 07:18:16;;;;;;;6.00;5.60;;;;;;;;;;4953927;29;20438;-90
2022/08/02 07:20:42;;;;;;;6.17;5.70;;;;;;;;;;4967677;29;20418;-92
2022/08/02 07:23:08;;;;;;;6.40;6.00;;;;;;;;;;4952126;29;20485;-89
2022/08/02 07:25:34;;;;;;;10.03;5.90;;;;;;;;;;4962566;29;20485;-89
2022/08/02 07:28:00;;;;;;;5.67;5.37;;;;;;;;;;4948633;29;20462;-92
2022/08/02 07:30:44;;;;;;;5.60;5.40;;;;;;;;;;4942198;29;20443;-93
2022/08/02 07:33:18;;;;;;;6.13;5.70;;;;;;;;;;4919777;29;20445;-92
2022/08/02 07:35:47;;;;;;;7.87;6.37;;;;;;;;;;4960762;29;20445;-90
2022/08/02 07:38:21;;;;;;;5.83;5.33;;;;;;;;;;4958050;28;20466;-93
2022/08/02 07:41:23;;;;;;;5.23;5.03;;;;;;;;;;4943167;29;20435;-93
2022/08/02 07:46:58;;;;;;;5.57;5.27;;;;;;;;;;4965400;28;20469;-92
2022/08/02 07:49:46;;;;;;;5.20;4.90;;;;;;;;;;4944391;29;20446;-93
2022/08/02 07:52:15;;;;;;;5.40;5.20;;;;;;;;;;4932782;29;20467;-90
2022/08/02 07:54:44;;;;;;;4.13;3.93;;;;;;;;;;4952695;29;20529;-91
2022/08/02 07:57:10;;;;;;;4.80;4.60;;;;;;;;;;4962846;29;20438;-94
2022/08/02 07:59:36;;;;;;;5.73;5.33;;;;;;;;;;4961372;28;20441;-93
2022/08/02 08:02:02;;;;;;;5.10;4.80;;;;;;;;;;4611881;29;10000268;-92
2022/08/02 08:04:31;;;;;;;4.47;4.27;;;;;;;;;;4945658;29;20217;-93
2022/08/02 08:06:58;;;;;;;5.20;4.90;;;;;;;;;;4949892;29;20853;-92
2022/08/02 08:09:24;;;;;;;4.60;4.30;;;;;;;;;;4951188;29;20469;-92
2022/08/02 08:11:56;;;;;;;4.40;4.30;;;;;;;;;;4957183;29;20438;-91
2022/08/02 08:14:22;;;;;;;4.73;4.47;;;;;;;;;;4969766;29;20430;-89
2022/08/02 08:16:49;;;;;;;4.57;4.17;;;;;;;;;;4956312;29;20445;-92
2022/08/02 08:19:15;;;;;;;4.10;3.90;;;;;;;;;;4949542;29;20497;-94
2022/08/02 08:21:41;;;;;;;4.00;3.90;;;;;;;;;;4950246;29;20450;-93
2022/08/02 08:24:11;;;;;;;3.60;3.40;;;;;;;;;;4957694;29;20478;-94
2022/08/02 08:26:38;;;;;;;3.23;3.23;;;;;;;;;;4947091;29;20484;-92
2022/08/02 08:29:06;;;;;;;2.80;2.80;;;;;;;;;;4937114;29;20459;-92
2022/08/02 08:31:32;;;;;;;2.90;2.80;;;;;;;;;;4985320;28;20417;-89
2022/08/02 08:33:58;;;;;;;2.43;2.43;;;;;;;;;;4950213;29;20445;-93
2022/08/02 08:36:42;;;;;;;3.20;3.10;;;;;;;;;;4967256;29;20948;-91
2022/08/02 08:39:12;;;;;;;2.67;2.60;;;;;;;;;;4955336;29;20486;-91
2022/08/02 08:41:38;;;;;;;2.77;2.70;;;;;;;;;;4979131;28;20522;-93
2022/08/02 08:44:04;;;;;;;3.10;2.87;;;;;;;;;;4955197;29;20435;-94
2022/08/02 08:46:31;;;;;;;2.90;2.90;;;;;;;;;;4946391;29;20440;-92
2022/08/02 08:56:43;;;;;;;2.73;2.70;;;;;;;;;;4961897;29;20516;-92
2022/08/02 09:06:59;;;;;;;2.90;2.90;;;;;;;;;;5038972;28;20474;-90
2022/08/02 09:09:38;;;;;;;3.13;3.13;;;;;;;;;;5253063;23;20631;-94
2022/08/02 09:12:27;;;;;;;2.27;2.23;;;;;;;;;;4990129;28;20440;-92
2022/08/02 09:14:53;;;;;;;3.40;3.20;;;;;;;;;;4970584;28;20449;-92
2022/08/02 09:17:20;;;;;;;2.87;2.83;;;;;;;;;;4988302;28;20440;-91
2022/08/02 09:19:47;;;;;;;2.40;2.40;;;;;;;;;;4999862;28;20582;-92
2022/08/02 09:22:18;;;;;;;3.07;3.07;;;;;;;;;;4996205;28;20436;-91
2022/08/02 09:24:50;;;;;;;3.03;2.97;;;;;;;;;;4995456;28;20516;-92
2022/08/02 09:27:20;;;;;;;3.20;3.20;;;;;;;;;;5011838;28;20501;-92
2022/08/02 09:29:50;;;;;;;4.33;2.90;;;;;;;;;;4998172;28;20453;-93
2022/08/02 09:32:17;;;;;;;3.67;3.30;;;;;;;;;;5007031;28;20412;-91
2022/08/02 09:34:44;;;;;;;4.03;3.73;;;;;;;;;;4998154;28;20435;-92
2022/08/02 09:37:24;;;;;;;3.23;3.20;;;;;;;;;;5016157;28;20507;-91
2022/08/02 09:39:51;;;;;;;4.03;3.93;;;;;;;;;;4992118;28;20456;-93
2022/08/02 09:42:17;;;;;;;3.83;3.53;;;;;;;;;;5012344;28;20507;-94
2022/08/02 09:44:56;;;;;;;7.50;7.10;;;;;;;;;;4993584;28;20432;-93
2022/08/02 09:47:23;;;;;;;5.63;4.13;;;;;;;;;;4984827;28;20468;-94
2022/08/02 09:49:49;;;;;;;3.80;3.80;;;;;;;;;;5010695;28;20542;-93
2022/08/02 09:52:51;;;;;;;3.80;3.70;;;;;;;;;;5011185;28;20494;-92
2022/08/02 10:00:29;;;;;;;4.40;4.17;;;;;;;;;;1965938;23;20940;-92
2022/08/02 10:03:08;;;;;;;5.10;4.90;;;;;;;;;;5007616;28;20433;-89
2022/08/02 10:05:58;;;;;;;4.10;3.93;;;;;;;;;;4992282;28;20185;-91
2022/08/02 10:08:32;;;;;;;4.50;4.30;;;;;;;;;;5009969;28;20496;-94
2022/08/02 10:10:59;;;;;;;3.93;3.80;;;;;;;;;;5012744;28;20454;-89
2022/08/02 10:13:34;;;;;;;5.03;4.70;;;;;;;;;;5006730;28;20459;-93
2022/08/02 10:16:01;;;;;;;4.13;4.03;;;;;;;;;;4987803;28;20427;-92
2022/08/02 10:18:29;;;;;;;3.93;3.93;;;;;;;;;;4987752;28;20424;-94
2022/08/02 10:20:57;;;;;;;4.27;4.10;;;;;;;;;;5001312;28;20523;-95
2022/08/02 10:23:25;;;;;;;4.10;3.80;;;;;;;;;;5003859;28;20448;-91
2022/08/02 10:25:53;;;;;;;4.47;4.17;;;;;;;;;;5009099;28;20431;-94
2022/08/02 10:28:25;;;;;;;3.20;3.20;;;;;;;;;;4988684;28;20518;-90
2022/08/02 10:30:53;;;;;;;4.10;3.27;;;;;;;;;;5005615;28;20423;-90
2022/08/02 10:33:19;;;;;;;4.13;3.70;;;;;;;;;;5001224;28;20429;-93
2022/08/02 10:35:46;;;;;;;4.47;4.17;;;;;;;;;;5010186;28;20489;-92
2022/08/02 10:38:15;;;;;;;4.63;4.20;;;;;;;;;;5008720;28;20491;-94
2022/08/02 10:40:57;;;;;;;4.30;4.10;;;;;;;;;;5013547;28;20466;-93
2022/08/02 10:43:43;;;;;;;4.20;4.10;;;;;;;;;;4996278;28;20504;-94
2022/08/02 10:46:28;;;;;;;4.00;3.70;;;;;;;;;;5008852;28;20507;-92
2022/08/02 10:49:09;;;;;;;4.20;3.80;;;;;;;;;;5002185;28;20526;-94
2022/08/02 10:51:55;;;;;;;4.43;3.87;;;;;;;;;;5026067;28;20424;-92
2022/08/02 10:54:25;;;;;;;4.10;3.93;;;;;;;;;;5006495;28;20424;-92
2022/08/02 10:57:05;;;;;;;3.20;3.10;;;;;;;;;;5013129;28;20439;-91
2022/08/02 10:59:35;;;;;;;4.00;3.63;;;;;;;;;;5017461;28;20476;-94
2022/08/02 11:02:02;;;;;;;4.40;4.27;;;;;;;;;;4993476;28;20540;-92
2022/08/02 11:04:29;;;;;;;3.30;3.20;;;;;;;;;;4967673;28;20544;-92
2022/08/02 11:07:09;;;;;;;3.50;3.33;;;;;;;;;;4973085;28;20460;-94
2022/08/02 11:09:35;;;;;;;3.40;3.30;;;;;;;;;;4982256;28;20447;-91
2022/08/02 11:12:05;;;;;;;5.07;4.67;;;;;;;;;;4986692;28;20448;-94
2022/08/02 11:14:34;;;;;;;3.40;3.10;;;;;;;;;;4983733;28;20429;-93
2022/08/02 11:17:04;;;;;;;3.57;3.20;;;;;;;;;;4986513;28;20489;-94
2022/08/02 11:19:35;;;;;;;3.70;3.50;;;;;;;;;;4987657;28;20442;-93
2022/08/02 11:22:01;;;;;;;5.17;3.30;;;;;;;;;;4983486;28;20426;-93
2022/08/02 11:24:34;;;;;;;2.80;2.70;;;;;;;;;;4984646;28;20447;-92
2022/08/02 11:27:05;;;;;;;2.17;2.17;;;;;;;;;;4989103;28;20487;-90
2022/08/02 11:29:39;;;;;;;2.77;2.77;;;;;;;;;;4987749;28;20443;-93
2022/08/02 11:32:08;;;;;;;2.40;2.30;;;;;;;;;;4986515;28;20464;-93
2022/08/02 11:34:43;;;;;;;2.50;2.27;;;;;;;;;;5161501;23;20485;-95
2022/08/02 11:37:10;;;;;;;2.60;2.60;;;;;;;;;;4985558;28;20427;-92
2022/08/02 11:39:36;;;;;;;2.80;2.70;;;;;;;;;;5006674;28;20460;-92
2022/08/02 11:42:02;;;;;;;4.43;2.83;;;;;;;;;;5016622;28;20524;-92
2022/08/02 11:44:40;;;;;;;2.60;2.60;;;;;;;;;;5013503;28;20451;-93
2022/08/02 11:47:07;;;;;;;2.70;2.70;;;;;;;;;;4997830;28;20491;-93
2022/08/02 11:49:33;;;;;;;3.40;3.30;;;;;;;;;;5037121;28;20445;-95
2022/08/02 11:52:04;;;;;;;2.97;2.97;;;;;;;;;;5018703;28;20471;-92
2022/08/02 11:54:34;;;;;;;3.60;3.30;;;;;;;;;;4994063;28;20490;-94
2022/08/02 11:57:17;;;;;;;2.53;2.43;;;;;;;;;;4989302;28;20420;-90
2022/08/02 11:59:45;;;;;;;2.30;2.30;;;;;;;;;;5009388;28;20439;-90
2022/08/02 12:02:11;;;;;;;2.70;2.60;;;;;;;;;;4998877;28;20447;-93
2022/08/02 12:04:37;;;;;;;3.03;2.90;;;;;;;;;;4997714;28;20444;-94
2022/08/02 12:07:04;;;;;;;2.27;2.27;;;;;;;;;;5006062;28;21188;-94
2022/08/02 12:09:32;;;;;;;2.30;2.30;;;;;;;;;;5028035;28;20419;-94
2022/08/02 12:11:58;;;;;;;2.80;2.70;;;;;;;;;;5012251;28;20438;-94
2022/08/02 12:14:26;;;;;;;2.33;2.27;;;;;;;;;;5019083;28;20432;-90
2022/08/02 12:19:38;;;;;;;3.37;3.07;;;;;;;;;;5017749;28;20435;-93
2022/08/02 12:22:10;;;;;;;3.07;2.90;;;;;;;;;;5028940;28;20447;-92
2022/08/02 12:24:36;;;;;;;2.40;2.40;;;;;;;;;;5007593;28;20479;-93
2022/08/02 12:27:06;;;;;;;2.53;2.43;;;;;;;;;;5014521;28;20481;-93
2022/08/02 12:29:34;;;;;;;2.50;2.50;;;;;;;;;;5180909;22;20543;-92
2022/08/02 12:32:00;;;;;;;2.67;2.57;;;;;;;;;;4962111;29;20422;-90
2022/08/02 12:34:27;;;;;;;2.97;2.88;;;;;;;;;;4970769;28;20400;-91
2022/08/02 12:37:20;;;;;;;2.40;2.40;;;;;;;;;;4987977;28;20182;-89
2022/08/02 12:39:48;;;;;;;2.90;2.80;;;;;;;;;;4936644;29;20434;-93
2022/08/02 12:42:15;;;;;;;2.30;2.30;;;;;;;;;;4985545;28;20480;-95
2022/08/02 12:44:59;;;;;;;2.77;2.67;;;;;;;;;;4963652;29;20530;-91
2022/08/02 12:47:26;;;;;;;6.53;2.97;;;;;;;;;;4948656;29;20466;-90
2022/08/02 12:50:11;;;;;;;2.20;2.20;;;;;;;;;;4967462;28;20485;-90
2022/08/02 12:52:38;;;;;;;2.37;2.10;;;;;;;;;;4971286;28;20430;-91
2022/08/02 12:55:17;;;;;;;2.50;2.30;;;;;;;;;;4969852;28;20454;-93
2022/08/02 12:57:57;;;;;;;2.50;2.50;;;;;;;;;;4974178;29;20442;-91
2022/08/02 13:00:29;;;;;;;2.30;2.30;;;;;;;;;;4951883;29;20688;-92
2022/08/02 13:02:56;;;;;;;2.80;2.80;;;;;;;;;;4973553;28;20434;-91
2022/08/02 13:05:22;;;;;;;2.60;2.60;;;;;;;;;;4960599;29;20448;-92
2022/08/02 13:07:48;;;;;;;2.50;2.50;;;;;;;;;;4968668;28;20520;-90
2022/08/02 13:10:14;;;;;;;2.60;2.53;;;;;;;;;;4959523;29;20438;-93
2022/08/02 13:12:41;;;;;;;2.90;2.90;;;;;;;;;;4962135;29;20452;-91
2022/08/02 13:15:08;;;;;;;2.67;2.67;;;;;;;;;;4973052;28;20421;-90
2022/08/02 13:17:34;;;;;;;4.17;2.80;;;;;;;;;;4986544;28;20437;-94
2022/08/02 13:20:01;;;;;;;2.77;2.77;;;;;;;;;;5060609;23;20457;-90
2022/08/02 13:22:31;;;;;;;3.07;2.80;;;;;;;;;;4989772;28;20431;-92
2022/08/02 13:25:01;;;;;;;2.83;2.63;;;;;;;;;;5000014;28;20441;-91
2022/08/02 13:27:27;;;;;;;3.07;2.60;;;;;;;;;;5015242;28;20455;-92
2022/08/02 13:29:55;;;;;;;2.20;2.10;;;;;;;;;;4994547;28;20433;-89
2022/08/02 13:37:37;;;;;;;2.67;2.47;;;;;;;;;;4988999;28;20492;-93
2022/08/02 13:40:05;;;;;;;3.60;2.73;;;;;;;;;;4995235;28;20438;-93
2022/08/02 13:42:32;;;;;;;2.40;2.30;;;;;;;;;;4958186;29;20430;-94
2022/08/02 13:47:41;;;;;;;2.50;2.40;;;;;;;;;;5104471;23;20496;-92
2022/08/02 13:50:07;;;;;;;2.40;2.30;;;;;;;;;;5016079;28;20415;-93
2022/08/02 13:52:37;;;;;;;2.60;2.40;;;;;;;;;;5032310;28;20510;-93
2022/08/02 13:55:03;;;;;;;2.60;2.50;;;;;;;;;;5005021;28;20459;-92
2022/08/02 13:57:32;;;;;;;2.43;2.43;;;;;;;;;;5013835;28;20474;-92
2022/08/02 14:05:21;;;;;;;2.10;2.10;;;;;;;;;;2155414;23;20451;-87
2022/08/02 14:18:56;;;;;;;2.60;2.60;;;;;;;;;;2207109;23;20451;-88
2022/08/02 14:21:25;;;;;;;2.70;2.70;;;;;;;;;;5015234;28;20436;-92
2022/08/02 14:23:58;;;;;;;2.60;2.50;;;;;;;;;;5007242;28;20436;-93
2022/08/02 14:26:25;;;;;;;6.03;2.77;;;;;;;;;;4991610;28;20464;-92
2022/08/02 14:28:51;;;;;;;3.40;3.10;;;;;;;;;;5009451;28;20435;-93
2022/08/02 14:31:18;;;;;;;2.90;2.80;;;;;;;;;;5010269;28;20438;-88
2022/08/02 14:33:44;;;;;;;2.47;2.20;;;;;;;;;;5188598;23;20495;-90
2022/08/02 14:36:19;;;;;;;2.87;2.77;;;;;;;;;;4991781;28;20444;-93
2022/08/02 14:38:47;;;;;;;5.60;2.83;;;;;;;;;;4974477;28;20452;-95
2022/08/02 14:41:14;;;;;;;2.40;2.33;;;;;;;;;;5194350;23;20480;-93
2022/08/02 14:44:03;;;;;;;2.40;2.40;;;;;;;;;;4988748;28;20478;-95
2022/08/02 14:46:30;;;;;;;2.23;2.23;;;;;;;;;;4971680;28;20441;-95
2022/08/02 14:48:56;;;;;;;2.00;2.00;;;;;;;;;;4991753;28;20436;-92
2022/08/02 14:51:22;;;;;;;2.70;2.50;;;;;;;;;;4994321;28;20397;-93
2022/08/02 14:53:49;;;;;;;2.73;2.63;;;;;;;;;;5096841;23;20507;-90
2022/08/02 14:56:15;;;;;;;2.60;2.53;;;;;;;;;;5011521;28;20466;-90
2022/08/02 14:58:54;;;;;;;2.63;2.63;;;;;;;;;;5091330;23;20553;-92
2022/08/02 15:01:20;;;;;;;2.70;2.60;;;;;;;;;;5012617;28;20448;-91
2022/08/02 15:03:57;;;;;;;3.57;3.27;;;;;;;;;;4993767;28;20464;-90
2022/08/02 15:06:27;;;;;;;2.40;2.30;;;;;;;;;;5011304;28;20412;-94
2022/08/02 15:08:53;;;;;;;2.43;2.43;;;;;;;;;;4986839;28;20440;-93
2022/08/02 15:11:20;;;;;;;2.50;2.40;;;;;;;;;;4989921;28;20440;-92
2022/08/02 15:13:46;;;;;;;2.80;2.70;;;;;;;;;;5005056;28;20432;-93
2022/08/02 15:16:12;;;;;;;3.10;3.10;;;;;;;;;;4987497;28;20508;-90
2022/08/02 15:18:38;;;;;;;2.97;2.77;;;;;;;;;;4985649;28;20511;-89
2022/08/02 15:21:05;;;;;;;2.70;2.60;;;;;;;;;;4985546;28;20510;-92
2022/08/02 15:23:31;;;;;;;4.33;3.17;;;;;;;;;;4981518;28;20428;-90
2022/08/02 15:25:57;;;;;;;2.40;2.40;;;;;;;;;;5001591;28;20424;-92
2022/08/02 15:28:28;;;;;;;3.40;2.20;;;;;;;;;;4987774;28;20552;-90
2022/08/02 15:30:54;;;;;;;2.07;2.07;;;;;;;;;;4984224;28;20511;-93
2022/08/02 15:33:23;;;;;;;2.60;2.50;;;;;;;;;;4992739;28;20468;-90
2022/08/02 15:35:49;;;;;;;2.13;2.13;;;;;;;;;;4986761;28;20884;-92
2022/08/02 15:38:24;;;;;;;2.50;2.40;;;;;;;;;;4993288;28;20425;-91
2022/08/02 15:40:53;;;;;;;5.07;4.70;;;;;;;;;;5008503;28;20483;-95
2022/08/02 15:43:20;;;;;;;3.20;3.10;;;;;;;;;;5007501;28;20447;-93
2022/08/02 15:45:46;;;;;;;2.47;2.47;;;;;;;;;;4967927;28;20461;-92
2022/08/02 15:48:12;;;;;;;3.63;3.53;;;;;;;;;;4983789;28;20526;-92
2022/08/02 15:50:39;;;;;;;2.90;2.80;;;;;;;;;;4977276;28;20444;-90